TimeMDT,TemperatureF,Dew PointF,Humidity,Sea Level PressureIn,VisibilityMPH,Wind Direction,Wind SpeedMPH,Gust SpeedMPH,PrecipitationIn,Events,Conditions,WindDirDegrees,DateUTC
12:53 AM,36.0,12.9,39,30.16,10.0,South,9.2,-,N/A,,Clear,180,2012-10-07 06:53:00
1:53 AM,35.1,12.0,39,30.16,10.0,South,8.1,-,N/A,,Clear,180,2012-10-07 07:53:00
2:53 AM,34.0,10.0,37,30.16,10.0,South,10.4,-,N/A,,Clear,180,2012-10-07 08:53:00
3:53 AM,32.0,10.0,40,30.16,10.0,Calm,Calm,-,N/A,,Clear,0,2012-10-07 09:53:00
4:53 AM,26.1,10.9,53,30.17,10.0,SE,3.5,-,N/A,,Clear,130,2012-10-07 10:53:00
5:53 AM,28.0,10.0,47,30.16,10.0,South,6.9,-,N/A,,Clear,170,2012-10-07 11:53:00
6:53 AM,30.0,10.0,43,30.16,10.0,South,6.9,-,N/A,,Clear,180,2012-10-07 12:53:00
7:53 AM,24.1,10.0,55,30.22,10.0,Calm,Calm,-,N/A,,Clear,0,2012-10-07 13:53:00
8:53 AM,39.0,10.0,30,30.20,7.0,Calm,Calm,-,N/A,,Clear,0,2012-10-07 14:53:00
9:53 AM,44.1,12.0,27,30.21,10.0,Calm,Calm,-,N/A,,Clear,0,2012-10-07 15:53:00
10:53 AM,48.0,15.1,27,30.19,10.0,ENE,6.9,-,N/A,,Clear,60,2012-10-07 16:53:00
11:53 AM,54.0,18.0,24,30.16,10.0,ENE,6.9,-,N/A,,Clear,70,2012-10-07 17:53:00
12:53 PM,59.0,19.0,21,30.12,10.0,East,9.2,-,N/A,,Clear,80,2012-10-07 18:53:00
1:53 PM,63.0,12.9,14,30.09,10.0,NE,10.4,-,N/A,,Clear,40,2012-10-07 19:53:00
2:53 PM,64.9,12.9,13,30.05,10.0,Variable,6.9,-,N/A,,Clear,0,2012-10-07 20:53:00
3:53 PM,66.0,12.0,12,30.04,10.0,North,3.5,-,N/A,,Clear,360,2012-10-07 21:53:00
4:53 PM,66.0,10.9,12,30.04,10.0,NNW,4.6,-,N/A,,Clear,340,2012-10-07 22:53:00
5:53 PM,64.0,12.9,14,30.02,10.0,NW,5.8,-,N/A,,Clear,320,2012-10-07 23:53:00
6:53 PM,57.9,14.0,18,30.02,10.0,WNW,3.5,-,N/A,,Clear,300,2012-10-08 00:53:00
7:53 PM,51.1,14.0,23,30.05,10.0,West,3.5,-,N/A,,Clear,270,2012-10-08 01:53:00
8:53 PM,39.9,17.1,40,30.05,10.0,SW,4.6,-,N/A,,Clear,230,2012-10-08 02:53:00
9:53 PM,39.0,17.1,41,30.04,10.0,SSW,4.6,-,N/A,,Clear,200,2012-10-08 03:53:00
10:53 PM,39.9,14.0,35,30.03,10.0,South,8.1,-,N/A,,Clear,190,2012-10-08 04:53:00
11:53 PM,41.0,14.0,33,30.01,10.0,South,9.2,-,N/A,,Clear,180,2012-10-08 05:53:00